sensor_id;sensor_type;location;lat;lon;timestamp;pressure;altitude;pressure_sealevel;temperature;humidity
74065;BME280;62421;51.412;5.432;2023-05-29T00:01:30;102106.03;;;12.53;92.24
74065;BME280;62421;51.412;5.432;2023-05-29T00:03:56;102104.31;;;12.52;92.38
74065;BME280;62421;51.412;5.432;2023-05-29T00:06:24;102108.03;;;12.49;93.29
74065;BME280;62421;51.412;5.432;2023-05-29T00:08:49;102100.41;;;12.42;94.21
74065;BME280;62421;51.412;5.432;2023-05-29T00:11:15;102108.06;;;12.34;94.89
74065;BME280;62421;51.412;5.432;2023-05-29T00:13:40;102109.25;;;12.28;95.30
74065;BME280;62421;51.412;5.432;2023-05-29T00:16:06;102112.22;;;12.23;96.17
74065;BME280;62421;51.412;5.432;2023-05-29T00:18:34;102101.00;;;12.15;96.07
74065;BME280;62421;51.412;5.432;2023-05-29T00:21:00;102108.41;;;12.12;97.03
74065;BME280;62421;51.412;5.432;2023-05-29T00:23:25;102112.66;;;12.00;98.28
74065;BME280;62421;51.412;5.432;2023-05-29T00:25:50;102115.59;;;11.95;98.57
74065;BME280;62421;51.412;5.432;2023-05-29T00:28:16;102108.56;;;11.93;98.12
74065;BME280;62421;51.412;5.432;2023-05-29T00:30:41;102121.56;;;11.84;98.78
74065;BME280;62421;51.412;5.432;2023-05-29T00:33:06;102134.31;;;11.81;98.14
74065;BME280;62421;51.412;5.432;2023-05-29T00:35:33;102123.97;;;11.73;99.10
74065;BME280;62421;51.412;5.432;2023-05-29T00:37:58;102120.50;;;11.71;98.82
74065;BME280;62421;51.412;5.432;2023-05-29T00:40:24;102132.28;;;11.68;98.79
74065;BME280;62421;51.412;5.432;2023-05-29T00:42:50;102132.13;;;11.72;97.94
74065;BME280;62421;51.412;5.432;2023-05-29T00:45:15;102136.03;;;11.66;98.11
74065;BME280;62421;51.412;5.432;2023-05-29T00:47:44;102132.63;;;11.62;97.23
74065;BME280;62421;51.412;5.432;2023-05-29T00:50:11;102131.44;;;11.51;97.59
74065;BME280;62421;51.412;5.432;2023-05-29T00:52:39;102131.09;;;11.41;98.20
74065;BME280;62421;51.412;5.432;2023-05-29T00:55:06;102138.44;;;11.37;97.65
74065;BME280;62421;51.412;5.432;2023-05-29T00:57:33;102132.59;;;11.29;98.11
74065;BME280;62421;51.412;5.432;2023-05-29T01:00:00;102137.53;;;11.21;98.45
74065;BME280;62421;51.412;5.432;2023-05-29T01:02:27;102146.69;;;11.17;98.09
74065;BME280;62421;51.412;5.432;2023-05-29T01:04:56;102146.75;;;11.15;97.85
74065;BME280;62421;51.412;5.432;2023-05-29T01:07:21;102149.84;;;11.07;97.94
74065;BME280;62421;51.412;5.432;2023-05-29T01:09:47;102163.44;;;11.04;97.47
74065;BME280;62421;51.412;5.432;2023-05-29T01:20:33;102157.81;;;10.92;95.55
74065;BME280;62421;51.412;5.432;2023-05-29T01:28:32;102158.66;;;10.75;94.44
74065;BME280;62421;51.412;5.432;2023-05-29T01:31:00;102161.22;;;10.78;92.60
74065;BME280;62421;51.412;5.432;2023-05-29T01:33:26;102161.75;;;10.67;92.46
74065;BME280;62421;51.412;5.432;2023-05-29T01:35:52;102162.84;;;10.63;92.53
74065;BME280;62421;51.412;5.432;2023-05-29T01:38:17;102167.50;;;10.59;92.42
74065;BME280;62421;51.412;5.432;2023-05-29T01:40:43;102169.38;;;10.57;92.00
74065;BME280;62421;51.412;5.432;2023-05-29T01:43:09;102170.53;;;10.52;91.41
74065;BME280;62421;51.412;5.432;2023-05-29T01:45:36;102175.06;;;10.51;90.38
74065;BME280;62421;51.412;5.432;2023-05-29T01:48:01;102173.63;;;10.44;90.07
74065;BME280;62421;51.412;5.432;2023-05-29T01:50:27;102166.44;;;10.44;89.82
74065;BME280;62421;51.412;5.432;2023-05-29T01:52:53;102175.50;;;10.42;88.81
74065;BME280;62421;51.412;5.432;2023-05-29T01:55:19;102183.91;;;10.34;88.27
74065;BME280;62421;51.412;5.432;2023-05-29T01:57:45;102185.13;;;10.27;89.01
74065;BME280;62421;51.412;5.432;2023-05-29T02:00:11;102178.03;;;10.26;88.13
74065;BME280;62421;51.412;5.432;2023-05-29T02:02:39;102182.66;;;10.22;87.75
74065;BME280;62421;51.412;5.432;2023-05-29T02:05:06;102186.22;;;10.23;86.89
74065;BME280;62421;51.412;5.432;2023-05-29T02:07:33;102181.66;;;10.25;86.36
74065;BME280;62421;51.412;5.432;2023-05-29T02:09:58;102186.50;;;10.17;86.62
74065;BME280;62421;51.412;5.432;2023-05-29T02:12:23;102171.47;;;10.13;87.06
74065;BME280;62421;51.412;5.432;2023-05-29T02:14:49;102168.78;;;10.13;86.74
74065;BME280;62421;51.412;5.432;2023-05-29T02:17:14;102174.31;;;10.10;87.15
74065;BME280;62421;51.412;5.432;2023-05-29T02:19:40;102182.44;;;10.08;87.18
74065;BME280;62421;51.412;5.432;2023-05-29T02:22:06;102172.72;;;10.05;87.38
74065;BME280;62421;51.412;5.432;2023-05-29T02:24:31;102184.53;;;10.01;88.13
74065;BME280;62421;51.412;5.432;2023-05-29T02:26:57;102186.47;;;9.98;88.67
74065;BME280;62421;51.412;5.432;2023-05-29T02:29:22;102186.56;;;9.96;88.76
74065;BME280;62421;51.412;5.432;2023-05-29T02:31:47;102193.25;;;9.88;89.20
74065;BME280;62421;51.412;5.432;2023-05-29T02:34:13;102190.63;;;9.86;89.58
74065;BME280;62421;51.412;5.432;2023-05-29T02:36:38;102186.13;;;9.87;89.51
74065;BME280;62421;51.412;5.432;2023-05-29T02:39:05;102188.22;;;9.80;90.21
74065;BME280;62421;51.412;5.432;2023-05-29T02:41:31;102182.84;;;9.80;89.85
74065;BME280;62421;51.412;5.432;2023-05-29T02:43:56;102188.56;;;9.72;90.41
74065;BME280;62421;51.412;5.432;2023-05-29T02:46:21;102199.41;;;9.69;90.68
74065;BME280;62421;51.412;5.432;2023-05-29T02:48:47;102194.13;;;9.68;90.64
74065;BME280;62421;51.412;5.432;2023-05-29T02:51:13;102194.31;;;9.63;90.94
74065;BME280;62421;51.412;5.432;2023-05-29T02:53:39;102195.41;;;9.59;91.59
74065;BME280;62421;51.412;5.432;2023-05-29T02:56:06;102187.09;;;9.65;90.67
74065;BME280;62421;51.412;5.432;2023-05-29T02:58:33;102195.56;;;9.56;91.36
74065;BME280;62421;51.412;5.432;2023-05-29T03:01:00;102199.31;;;9.52;91.87
74065;BME280;62421;51.412;5.432;2023-05-29T03:03:27;102199.50;;;9.47;92.35
74065;BME280;62421;51.412;5.432;2023-05-29T03:05:52;102199.56;;;9.46;92.30
74065;BME280;62421;51.412;5.432;2023-05-29T03:08:18;102204.94;;;9.46;92.48
74065;BME280;62421;51.412;5.432;2023-05-29T03:10:43;102197.84;;;9.45;92.56
74065;BME280;62421;51.412;5.432;2023-05-29T03:13:10;102202.41;;;9.42;92.77
74065;BME280;62421;51.412;5.432;2023-05-29T03:15:35;102201.72;;;9.37;93.04
74065;BME280;62421;51.412;5.432;2023-05-29T03:18:00;102198.97;;;9.39;93.08
74065;BME280;62421;51.412;5.432;2023-05-29T03:20:26;102206.34;;;9.34;93.63
74065;BME280;62421;51.412;5.432;2023-05-29T03:22:53;102206.56;;;9.29;93.68
74065;BME280;62421;51.412;5.432;2023-05-29T03:25:19;102199.56;;;9.25;94.09
74065;BME280;62421;51.412;5.432;2023-05-29T03:27:45;102204.94;;;9.25;94.35
74065;BME280;62421;51.412;5.432;2023-05-29T03:30:11;102202.25;;;9.25;94.23
74065;BME280;62421;51.412;5.432;2023-05-29T03:32:37;102204.19;;;9.21;94.63
74065;BME280;62421;51.412;5.432;2023-05-29T03:35:02;102198.03;;;9.19;94.59
74065;BME280;62421;51.412;5.432;2023-05-29T03:37:28;102193.63;;;9.18;94.92
74065;BME280;62421;51.412;5.432;2023-05-29T03:39:54;102197.06;;;9.20;95.04
74065;BME280;62421;51.412;5.432;2023-05-29T03:42:20;102206.00;;;9.21;95.19
74065;BME280;62421;51.412;5.432;2023-05-29T03:44:45;102200.09;;;9.13;96.22
74065;BME280;62421;51.412;5.432;2023-05-29T03:47:11;102207.28;;;9.12;96.31
74065;BME280;62421;51.412;5.432;2023-05-29T03:49:36;102205.56;;;9.10;96.75
74065;BME280;62421;51.412;5.432;2023-05-29T03:52:02;102211.81;;;9.10;96.88
74065;BME280;62421;51.412;5.432;2023-05-29T03:54:27;102222.41;;;9.13;96.55
74065;BME280;62421;51.412;5.432;2023-05-29T03:56:53;102210.13;;;9.08;97.27
74065;BME280;62421;51.412;5.432;2023-05-29T03:59:18;102211.94;;;9.07;97.48
74065;BME280;62421;51.412;5.432;2023-05-29T04:01:43;102219.88;;;9.10;97.63
74065;BME280;62421;51.412;5.432;2023-05-29T04:04:09;102209.13;;;9.10;97.63
74065;BME280;62421;51.412;5.432;2023-05-29T04:06:34;102218.09;;;9.09;97.98
74065;BME280;62421;51.412;5.432;2023-05-29T04:09:04;102220.53;;;9.15;97.44
74065;BME280;62421;51.412;5.432;2023-05-29T04:11:29;102224.28;;;9.11;98.01
74065;BME280;62421;51.412;5.432;2023-05-29T04:13:59;102229.56;;;9.13;97.83
74065;BME280;62421;51.412;5.432;2023-05-29T04:16:24;102235.00;;;9.11;98.19
74065;BME280;62421;51.412;5.432;2023-05-29T04:18:50;102231.31;;;9.14;98.14
74065;BME280;62421;51.412;5.432;2023-05-29T04:21:16;102228.63;;;9.14;98.36
74065;BME280;62421;51.412;5.432;2023-05-29T04:23:41;102226.75;;;9.16;98.20
74065;BME280;62421;51.412;5.432;2023-05-29T04:26:07;102231.13;;;9.18;97.58
74065;BME280;62421;51.412;5.432;2023-05-29T04:28:32;102242.81;;;9.16;98.32
74065;BME280;62421;51.412;5.432;2023-05-29T04:30:58;102248.06;;;9.19;97.86
74065;BME280;62421;51.412;5.432;2023-05-29T04:33:23;102239.09;;;9.20;97.62
74065;BME280;62421;51.412;5.432;2023-05-29T04:35:50;102246.00;;;9.26;97.29
74065;BME280;62421;51.412;5.432;2023-05-29T04:38:15;102245.00;;;9.28;96.67
74065;BME280;62421;51.412;5.432;2023-05-29T04:40:42;102248.53;;;9.29;96.67
74065;BME280;62421;51.412;5.432;2023-05-29T04:43:08;102244.50;;;9.40;96.03
74065;BME280;62421;51.412;5.432;2023-05-29T04:45:34;102251.47;;;9.86;94.26
74065;BME280;62421;51.412;5.432;2023-05-29T04:48:02;102251.44;;;10.45;90.27
74065;BME280;62421;51.412;5.432;2023-05-29T04:50:27;102255.97;;;10.81;87.64
74065;BME280;62421;51.412;5.432;2023-05-29T04:52:56;102249.19;;;10.92;85.87
74065;BME280;62421;51.412;5.432;2023-05-29T04:55:22;102251.06;;;11.09;85.92
74065;BME280;62421;51.412;5.432;2023-05-29T04:57:48;102252.84;;;11.44;83.64
74065;BME280;62421;51.412;5.432;2023-05-29T05:00:13;102251.00;;;11.62;82.15
74065;BME280;62421;51.412;5.432;2023-05-29T05:02:42;102254.88;;;11.57;81.85
74065;BME280;62421;51.412;5.432;2023-05-29T05:05:08;102259.38;;;11.56;81.93
74065;BME280;62421;51.412;5.432;2023-05-29T05:07:34;102259.63;;;11.69;81.45
74065;BME280;62421;51.412;5.432;2023-05-29T05:10:00;102249.09;;;11.82;80.52
74065;BME280;62421;51.412;5.432;2023-05-29T05:12:26;102253.56;;;12.16;79.27
74065;BME280;62421;51.412;5.432;2023-05-29T05:14:51;102265.19;;;12.50;77.90
74065;BME280;62421;51.412;5.432;2023-05-29T05:17:16;102256.91;;;12.53;75.91
74065;BME280;62421;51.412;5.432;2023-05-29T05:19:42;102257.38;;;12.28;77.47
74065;BME280;62421;51.412;5.432;2023-05-29T05:22:07;102261.50;;;12.35;77.32
74065;BME280;62421;51.412;5.432;2023-05-29T05:24:32;102258.75;;;12.53;75.72
74065;BME280;62421;51.412;5.432;2023-05-29T05:26:59;102262.41;;;12.67;75.46
74065;BME280;62421;51.412;5.432;2023-05-29T05:29:25;102271.72;;;12.78;74.79
74065;BME280;62421;51.412;5.432;2023-05-29T05:31:50;102269.06;;;12.60;74.39
74065;BME280;62421;51.412;5.432;2023-05-29T05:34:16;102259.28;;;12.10;76.50
74065;BME280;62421;51.412;5.432;2023-05-29T05:36:41;102261.22;;;11.38;80.07
74065;BME280;62421;51.412;5.432;2023-05-29T05:39:07;102262.41;;;10.96;83.13
74065;BME280;62421;51.412;5.432;2023-05-29T05:41:32;102274.34;;;10.72;84.57
74065;BME280;62421;51.412;5.432;2023-05-29T05:43:58;102288.38;;;10.59;86.38
74065;BME280;62421;51.412;5.432;2023-05-29T05:46:23;102288.53;;;10.56;86.19
74065;BME280;62421;51.412;5.432;2023-05-29T05:48:48;102291.50;;;10.50;86.58
74065;BME280;62421;51.412;5.432;2023-05-29T05:51:14;102287.94;;;10.50;86.93
74065;BME280;62421;51.412;5.432;2023-05-29T05:53:40;102277.09;;;10.51;86.10
74065;BME280;62421;51.412;5.432;2023-05-29T05:56:05;102279.88;;;10.50;86.65
74065;BME280;62421;51.412;5.432;2023-05-29T05:58:30;102270.13;;;10.47;87.10
74065;BME280;62421;51.412;5.432;2023-05-29T06:00:56;102282.34;;;10.54;87.29
74065;BME280;62421;51.412;5.432;2023-05-29T06:03:22;102277.41;;;10.64;85.43
74065;BME280;62421;51.412;5.432;2023-05-29T06:05:47;102274.94;;;10.59;85.64
74065;BME280;62421;51.412;5.432;2023-05-29T06:08:13;102271.44;;;10.57;86.57
74065;BME280;62421;51.412;5.432;2023-05-29T06:10:38;102281.03;;;10.63;85.50
74065;BME280;62421;51.412;5.432;2023-05-29T06:13:04;102279.56;;;10.56;86.56
74065;BME280;62421;51.412;5.432;2023-05-29T06:15:29;102287.44;;;10.60;86.29
74065;BME280;62421;51.412;5.432;2023-05-29T06:17:54;102282.78;;;10.64;85.48
74065;BME280;62421;51.412;5.432;2023-05-29T06:20:21;102282.66;;;10.67;85.06
74065;BME280;62421;51.412;5.432;2023-05-29T06:22:46;102295.28;;;10.65;84.57
74065;BME280;62421;51.412;5.432;2023-05-29T06:25:19;102292.44;;;10.68;85.09
74065;BME280;62421;51.412;5.432;2023-05-29T06:27:44;102296.50;;;10.77;85.59
74065;BME280;62421;51.412;5.432;2023-05-29T06:30:11;102306.09;;;10.82;83.88
74065;BME280;62421;51.412;5.432;2023-05-29T06:32:36;102308.25;;;10.74;83.52
74065;BME280;62421;51.412;5.432;2023-05-29T06:35:02;102307.19;;;10.78;84.32
74065;BME280;62421;51.412;5.432;2023-05-29T06:37:27;102308.56;;;10.87;83.80
74065;BME280;62421;51.412;5.432;2023-05-29T06:39:52;102305.63;;;10.92;84.18
74065;BME280;62421;51.412;5.432;2023-05-29T06:42:18;102324.72;;;11.04;82.80
74065;BME280;62421;51.412;5.432;2023-05-29T06:44:43;102327.41;;;11.04;81.53
74065;BME280;62421;51.412;5.432;2023-05-29T06:47:08;102319.50;;;11.01;81.92
74065;BME280;62421;51.412;5.432;2023-05-29T06:49:34;102316.59;;;11.06;82.05
74065;BME280;62421;51.412;5.432;2023-05-29T06:51:59;102323.25;;;11.16;81.58
74065;BME280;62421;51.412;5.432;2023-05-29T06:54:25;102319.47;;;11.20;80.74
74065;BME280;62421;51.412;5.432;2023-05-29T06:56:50;102318.06;;;11.31;81.35
74065;BME280;62421;51.412;5.432;2023-05-29T06:59:16;102320.28;;;11.40;80.46
74065;BME280;62421;51.412;5.432;2023-05-29T07:01:41;102310.50;;;11.56;81.48
74065;BME280;62421;51.412;5.432;2023-05-29T07:04:07;102320.78;;;11.65;79.44
74065;BME280;62421;51.412;5.432;2023-05-29T07:06:32;102306.34;;;11.68;79.49
74065;BME280;62421;51.412;5.432;2023-05-29T07:08:59;102302.91;;;11.64;79.85
74065;BME280;62421;51.412;5.432;2023-05-29T07:11:24;102298.81;;;11.57;78.09
74065;BME280;62421;51.412;5.432;2023-05-29T07:13:51;102303.06;;;11.61;78.12
74065;BME280;62421;51.412;5.432;2023-05-29T07:16:20;102310.91;;;11.66;78.05
74065;BME280;62421;51.412;5.432;2023-05-29T07:18:46;102316.91;;;11.71;78.39
74065;BME280;62421;51.412;5.432;2023-05-29T07:21:11;102312.41;;;11.72;78.05
74065;BME280;62421;51.412;5.432;2023-05-29T07:23:40;102311.94;;;11.81;78.63
74065;BME280;62421;51.412;5.432;2023-05-29T07:26:07;102310.91;;;11.83;78.39
74065;BME280;62421;51.412;5.432;2023-05-29T07:28:35;102311.56;;;11.88;78.34
74065;BME280;62421;51.412;5.432;2023-05-29T07:31:00;102307.69;;;11.94;78.41
74065;BME280;62421;51.412;5.432;2023-05-29T07:33:26;102319.88;;;12.01;79.21
74065;BME280;62421;51.412;5.432;2023-05-29T07:35:51;102317.78;;;12.06;76.31
74065;BME280;62421;51.412;5.432;2023-05-29T07:38:16;102322.25;;;12.07;75.88
74065;BME280;62421;51.412;5.432;2023-05-29T07:40:42;102307.47;;;12.15;75.51
74065;BME280;62421;51.412;5.432;2023-05-29T07:43:07;102318.91;;;12.20;75.51
74065;BME280;62421;51.412;5.432;2023-05-29T07:45:32;102327.66;;;12.23;74.98
74065;BME280;62421;51.412;5.432;2023-05-29T07:47:58;102331.00;;;12.28;73.92
74065;BME280;62421;51.412;5.432;2023-05-29T07:50:23;102326.47;;;12.29;73.63
74065;BME280;62421;51.412;5.432;2023-05-29T07:52:48;102321.97;;;12.29;74.44
74065;BME280;62421;51.412;5.432;2023-05-29T07:55:14;102333.00;;;12.41;75.58
74065;BME280;62421;51.412;5.432;2023-05-29T07:57:39;102335.22;;;12.50;73.30
74065;BME280;62421;51.412;5.432;2023-05-29T08:00:05;102323.66;;;12.48;73.61
74065;BME280;62421;51.412;5.432;2023-05-29T08:02:31;102333.94;;;12.57;72.37
74065;BME280;62421;51.412;5.432;2023-05-29T08:04:57;102336.44;;;12.60;73.04
74065;BME280;62421;51.412;5.432;2023-05-29T08:07:22;102330.63;;;12.68;71.26
74065;BME280;62421;51.412;5.432;2023-05-29T08:09:47;102331.09;;;12.76;69.62
74065;BME280;62421;51.412;5.432;2023-05-29T08:12:13;102337.78;;;12.85;68.72
74065;BME280;62421;51.412;5.432;2023-05-29T08:14:38;102332.91;;;12.91;69.15
74065;BME280;62421;51.412;5.432;2023-05-29T08:17:03;102332.31;;;13.02;70.44
74065;BME280;62421;51.412;5.432;2023-05-29T08:19:29;102333.69;;;13.09;68.68
74065;BME280;62421;51.412;5.432;2023-05-29T08:21:56;102328.94;;;13.15;70.69
74065;BME280;62421;51.412;5.432;2023-05-29T08:24:22;102342.50;;;13.29;67.87
74065;BME280;62421;51.412;5.432;2023-05-29T08:26:47;102342.56;;;13.27;65.29
74065;BME280;62421;51.412;5.432;2023-05-29T08:29:12;102342.50;;;13.29;65.96
74065;BME280;62421;51.412;5.432;2023-05-29T08:31:38;102342.25;;;13.34;66.82
74065;BME280;62421;51.412;5.432;2023-05-29T08:34:03;102330.31;;;13.38;65.21
74065;BME280;62421;51.412;5.432;2023-05-29T08:36:28;102338.94;;;13.44;65.14
74065;BME280;62421;51.412;5.432;2023-05-29T08:38:54;102340.66;;;13.45;64.42
74065;BME280;62421;51.412;5.432;2023-05-29T08:44:13;102335.78;;;13.82;66.17
74065;BME280;62421;51.412;5.432;2023-05-29T08:46:39;102342.94;;;13.98;62.98
74065;BME280;62421;51.412;5.432;2023-05-29T08:49:07;102339.78;;;14.05;63.75
74065;BME280;62421;51.412;5.432;2023-05-29T08:51:37;102335.34;;;14.19;63.24
74065;BME280;62421;51.412;5.432;2023-05-29T08:54:03;102346.66;;;14.25;62.56
74065;BME280;62421;51.412;5.432;2023-05-29T08:56:29;102346.66;;;14.25;61.42
74065;BME280;62421;51.412;5.432;2023-05-29T08:58:54;102341.56;;;14.35;62.63
74065;BME280;62421;51.412;5.432;2023-05-29T09:01:21;102346.06;;;14.34;59.89
74065;BME280;62421;51.412;5.432;2023-05-29T09:03:47;102344.63;;;14.29;60.51
74065;BME280;62421;51.412;5.432;2023-05-29T09:06:12;102351.47;;;14.34;62.12
74065;BME280;62421;51.412;5.432;2023-05-29T09:08:38;102352.34;;;14.49;61.19
74065;BME280;62421;51.412;5.432;2023-05-29T09:11:03;102361.16;;;14.53;59.28
74065;BME280;62421;51.412;5.432;2023-05-29T09:13:29;102357.88;;;14.48;59.26
74065;BME280;62421;51.412;5.432;2023-05-29T09:15:58;102351.78;;;14.44;58.98
74065;BME280;62421;51.412;5.432;2023-05-29T09:18:29;102352.94;;;14.54;60.46
74065;BME280;62421;51.412;5.432;2023-05-29T09:20:54;102345.66;;;14.57;59.15
74065;BME280;62421;51.412;5.432;2023-05-29T09:23:20;102344.00;;;14.68;60.29
74065;BME280;62421;51.412;5.432;2023-05-29T09:25:51;102349.41;;;14.68;58.87
74065;BME280;62421;51.412;5.432;2023-05-29T09:28:17;102349.88;;;14.75;60.40
74065;BME280;62421;51.412;5.432;2023-05-29T09:30:44;102342.81;;;14.87;58.86
74065;BME280;62421;51.412;5.432;2023-05-29T09:33:14;102352.34;;;14.92;59.90
74065;BME280;62421;51.412;5.432;2023-05-29T09:35:45;102359.50;;;15.08;60.05
74065;BME280;62421;51.412;5.432;2023-05-29T09:38:15;102346.00;;;15.21;57.94
74065;BME280;62421;51.412;5.432;2023-05-29T09:40:42;102334.19;;;15.36;58.97
74065;BME280;62421;51.412;5.432;2023-05-29T09:45:40;102340.38;;;15.38;58.57
74065;BME280;62421;51.412;5.432;2023-05-29T09:48:15;102346.28;;;15.30;57.42
74065;BME280;62421;51.412;5.432;2023-05-29T09:50:41;102349.84;;;15.31;58.40
74065;BME280;62421;51.412;5.432;2023-05-29T09:53:28;102357.41;;;15.53;58.34
74065;BME280;62421;51.412;5.432;2023-05-29T09:55:55;102338.28;;;15.69;56.54
74065;BME280;62421;51.412;5.432;2023-05-29T09:58:22;102346.03;;;15.75;56.48
74065;BME280;62421;51.412;5.432;2023-05-29T10:00:48;102341.94;;;15.82;55.33
74065;BME280;62421;51.412;5.432;2023-05-29T10:03:15;102350.72;;;15.86;55.25
74065;BME280;62421;51.412;5.432;2023-05-29T10:05:41;102344.75;;;15.93;55.06
74065;BME280;62421;51.412;5.432;2023-05-29T10:08:18;102331.53;;;15.89;55.91
74065;BME280;62421;51.412;5.432;2023-05-29T10:10:45;102348.13;;;15.97;54.98
74065;BME280;62421;51.412;5.432;2023-05-29T10:13:13;102334.16;;;16.03;55.23
74065;BME280;62421;51.412;5.432;2023-05-29T10:15:45;102330.03;;;16.10;54.41
74065;BME280;62421;51.412;5.432;2023-05-29T10:18:26;102325.47;;;16.11;54.83
74065;BME280;62421;51.412;5.432;2023-05-29T10:20:52;102320.81;;;16.13;55.44
74065;BME280;62421;51.412;5.432;2023-05-29T10:23:25;102329.63;;;16.29;56.18
74065;BME280;62421;51.412;5.432;2023-05-29T10:25:52;102322.56;;;16.40;53.79
74065;BME280;62421;51.412;5.432;2023-05-29T10:28:22;102329.19;;;16.35;53.76
74065;BME280;62421;51.412;5.432;2023-05-29T10:31:10;102315.06;;;16.43;54.47
74065;BME280;62421;51.412;5.432;2023-05-29T10:34:12;102330.03;;;16.62;53.53
74065;BME280;62421;51.412;5.432;2023-05-29T10:36:45;102321.53;;;16.66;53.14
74065;BME280;62421;51.412;5.432;2023-05-29T10:39:15;102328.81;;;16.66;52.84
74065;BME280;62421;51.412;5.432;2023-05-29T10:41:40;102325.03;;;16.55;52.87
74065;BME280;62421;51.412;5.432;2023-05-29T10:49:23;102320.47;;;16.56;54.05
74065;BME280;62421;51.412;5.432;2023-05-29T10:51:49;102329.00;;;16.75;53.27
74065;BME280;62421;51.412;5.432;2023-05-29T10:54:15;102322.63;;;16.76;52.43
74065;BME280;62421;51.412;5.432;2023-05-29T10:56:44;102325.78;;;16.83;53.22
74065;BME280;62421;51.412;5.432;2023-05-29T10:59:17;102313.91;;;16.97;53.58
74065;BME280;62421;51.412;5.432;2023-05-29T11:01:42;102309.72;;;17.17;53.17
74065;BME280;62421;51.412;5.432;2023-05-29T11:06:41;102303.34;;;17.29;53.73
74065;BME280;62421;51.412;5.432;2023-05-29T11:14:54;102303.06;;;17.45;52.73
74065;BME280;62421;51.412;5.432;2023-05-29T11:17:52;102312.06;;;17.46;52.38
74065;BME280;62421;51.412;5.432;2023-05-29T11:20:37;102304.84;;;17.57;53.05
74065;BME280;62421;51.412;5.432;2023-05-29T11:23:07;102304.91;;;17.80;51.96
74065;BME280;62421;51.412;5.432;2023-05-29T11:25:36;102294.34;;;17.88;50.51
74065;BME280;62421;51.412;5.432;2023-05-29T11:28:03;102296.59;;;17.94;50.10
74065;BME280;62421;51.412;5.432;2023-05-29T11:30:29;102294.09;;;17.91;49.98
74065;BME280;62421;51.412;5.432;2023-05-29T11:33:00;102293.59;;;17.86;50.81
74065;BME280;62421;51.412;5.432;2023-05-29T11:35:30;102290.03;;;17.86;50.93
74065;BME280;62421;51.412;5.432;2023-05-29T11:37:57;102290.63;;;17.89;49.60
74065;BME280;62421;51.412;5.432;2023-05-29T11:40:23;102288.66;;;17.91;51.08
74065;BME280;62421;51.412;5.432;2023-05-29T11:42:48;102290.69;;;18.00;49.57
74065;BME280;62421;51.412;5.432;2023-05-29T11:45:18;102294.00;;;18.04;49.23
74065;BME280;62421;51.412;5.432;2023-05-29T11:48:00;102294.38;;;18.11;49.39
74065;BME280;62421;51.412;5.432;2023-05-29T11:50:31;102302.56;;;18.22;48.25
74065;BME280;62421;51.412;5.432;2023-05-29T11:52:57;102300.81;;;18.10;48.48
74065;BME280;62421;51.412;5.432;2023-05-29T11:55:24;102292.97;;;17.94;47.12
74065;BME280;62421;51.412;5.432;2023-05-29T11:57:51;102293.28;;;17.78;48.55
74065;BME280;62421;51.412;5.432;2023-05-29T12:00:18;102284.81;;;17.94;49.02
74065;BME280;62421;51.412;5.432;2023-05-29T12:02:44;102288.69;;;18.03;47.53
74065;BME280;62421;51.412;5.432;2023-05-29T12:05:13;102287.34;;;18.08;48.03
74065;BME280;62421;51.412;5.432;2023-05-29T12:07:53;102286.94;;;18.01;48.15
74065;BME280;62421;51.412;5.432;2023-05-29T12:10:20;102290.69;;;18.12;47.56
74065;BME280;62421;51.412;5.432;2023-05-29T12:12:56;102287.97;;;18.34;47.52
74065;BME280;62421;51.412;5.432;2023-05-29T12:15:22;102285.38;;;18.21;47.11
74065;BME280;62421;51.412;5.432;2023-05-29T12:17:49;102285.88;;;18.27;47.31
74065;BME280;62421;51.412;5.432;2023-05-29T12:20:15;102288.47;;;18.39;48.17
74065;BME280;62421;51.412;5.432;2023-05-29T12:22:43;102272.53;;;18.46;47.19
74065;BME280;62421;51.412;5.432;2023-05-29T12:25:14;102280.19;;;18.63;48.82
74065;BME280;62421;51.412;5.432;2023-05-29T12:27:41;102281.03;;;18.87;48.27
74065;BME280;62421;51.412;5.432;2023-05-29T12:32:38;102286.94;;;19.03;46.25
74065;BME280;62421;51.412;5.432;2023-05-29T12:35:14;102282.34;;;19.03;46.69
74065;BME280;62421;51.412;5.432;2023-05-29T12:37:44;102281.13;;;18.96;46.01
74065;BME280;62421;51.412;5.432;2023-05-29T12:40:13;102287.44;;;18.97;46.21
74065;BME280;62421;51.412;5.432;2023-05-29T12:42:40;102272.50;;;18.91;46.38
74065;BME280;62421;51.412;5.432;2023-05-29T12:45:06;102279.25;;;18.97;47.31
74065;BME280;62421;51.412;5.432;2023-05-29T12:47:33;102274.56;;;19.10;46.98
74065;BME280;62421;51.412;5.432;2023-05-29T12:49:58;102284.69;;;19.08;45.62
74065;BME280;62421;51.412;5.432;2023-05-29T12:52:24;102285.44;;;18.99;45.26
74065;BME280;62421;51.412;5.432;2023-05-29T12:54:50;102275.06;;;18.93;46.72
74065;BME280;62421;51.412;5.432;2023-05-29T12:57:15;102273.28;;;19.14;46.26
74065;BME280;62421;51.412;5.432;2023-05-29T12:59:40;102275.13;;;19.46;45.52
74065;BME280;62421;51.412;5.432;2023-05-29T13:02:06;102284.69;;;19.08;44.92
74065;BME280;62421;51.412;5.432;2023-05-29T13:04:35;102286.19;;;19.01;45.06
74065;BME280;62421;51.412;5.432;2023-05-29T13:07:00;102273.63;;;18.89;45.35
74065;BME280;62421;51.412;5.432;2023-05-29T13:09:25;102273.97;;;18.95;45.57
74065;BME280;62421;51.412;5.432;2023-05-29T13:11:51;102267.47;;;19.19;45.85
74065;BME280;62421;51.412;5.432;2023-05-29T13:14:18;102269.75;;;19.35;43.75
74065;BME280;62421;51.412;5.432;2023-05-29T13:16:43;102275.31;;;19.33;43.05
74065;BME280;62421;51.412;5.432;2023-05-29T13:19:09;102272.41;;;19.14;43.47
74065;BME280;62421;51.412;5.432;2023-05-29T13:21:34;102273.69;;;18.98;45.11
74065;BME280;62421;51.412;5.432;2023-05-29T13:24:00;102281.94;;;19.19;45.08
74065;BME280;62421;51.412;5.432;2023-05-29T13:26:25;102274.50;;;19.21;44.90